sensor_id;sensor_type;location;lat;lon;timestamp;P1;durP1;ratioP1;P2;durP2;ratioP2
25327;SDS011;13279;51.300;12.394;2023-03-23T00:02:24;3.07;;;1.60;;
25327;SDS011;13279;51.300;12.394;2023-03-23T00:04:52;5.07;;;1.60;;
25327;SDS011;13279;51.300;12.394;2023-03-23T00:07:20;1.83;;;1.30;;
25327;SDS011;13279;51.300;12.394;2023-03-23T00:09:48;5.87;;;1.13;;
25327;SDS011;13279;51.300;12.394;2023-03-23T00:12:20;2.60;;;1.60;;
25327;SDS011;13279;51.300;12.394;2023-03-23T00:14:58;1.83;;;1.20;;
25327;SDS011;13279;51.300;12.394;2023-03-23T00:17:28;1.93;;;1.57;;
25327;SDS011;13279;51.300;12.394;2023-03-23T00:19:58;5.03;;;1.30;;
25327;SDS011;13279;51.300;12.394;2023-03-23T00:22:26;1.83;;;1.30;;
25327;SDS011;13279;51.300;12.394;2023-03-23T00:24:55;1.87;;;1.50;;
25327;SDS011;13279;51.300;12.394;2023-03-23T00:27:22;2.43;;;1.43;;
25327;SDS011;13279;51.300;12.394;2023-03-23T00:29:50;1.93;;;1.17;;
25327;SDS011;13279;51.300;12.394;2023-03-23T00:32:19;2.70;;;1.50;;
25327;SDS011;13279;51.300;12.394;2023-03-23T00:34:54;1.77;;;1.27;;
25327;SDS011;13279;51.300;12.394;2023-03-23T00:37:21;1.47;;;1.30;;
25327;SDS011;13279;51.300;12.394;2023-03-23T00:39:51;3.07;;;1.27;;
25327;SDS011;13279;51.300;12.394;2023-03-23T00:42:23;1.13;;;1.03;;
25327;SDS011;13279;51.300;12.394;2023-03-23T00:44:51;1.83;;;1.30;;
25327;SDS011;13279;51.300;12.394;2023-03-23T00:47:26;6.40;;;1.47;;
25327;SDS011;13279;51.300;12.394;2023-03-23T00:49:58;1.77;;;1.20;;
25327;SDS011;13279;51.300;12.394;2023-03-23T00:52:25;1.00;;;1.00;;
25327;SDS011;13279;51.300;12.394;2023-03-23T00:54:53;3.47;;;1.37;;
25327;SDS011;13279;51.300;12.394;2023-03-23T00:57:20;1.07;;;0.97;;
25327;SDS011;13279;51.300;12.394;2023-03-23T00:59:49;1.17;;;1.13;;
25327;SDS011;13279;51.300;12.394;2023-03-23T01:02:17;0.97;;;0.97;;
25327;SDS011;13279;51.300;12.394;2023-03-23T01:04:45;1.53;;;1.43;;
25327;SDS011;13279;51.300;12.394;2023-03-23T01:07:19;2.30;;;1.20;;
25327;SDS011;13279;51.300;12.394;2023-03-23T01:09:49;2.70;;;1.40;;
25327;SDS011;13279;51.300;12.394;2023-03-23T01:12:19;2.80;;;1.13;;
25327;SDS011;13279;51.300;12.394;2023-03-23T01:14:49;1.97;;;1.43;;
25327;SDS011;13279;51.300;12.394;2023-03-23T01:17:17;2.30;;;1.20;;
25327;SDS011;13279;51.300;12.394;2023-03-23T01:19:46;5.10;;;1.10;;
25327;SDS011;13279;51.300;12.394;2023-03-23T01:22:14;1.40;;;1.03;;
25327;SDS011;13279;51.300;12.394;2023-03-23T01:24:46;1.43;;;1.33;;
25327;SDS011;13279;51.300;12.394;2023-03-23T01:27:13;3.33;;;1.17;;
25327;SDS011;13279;51.300;12.394;2023-03-23T01:29:40;1.07;;;0.97;;
25327;SDS011;13279;51.300;12.394;2023-03-23T01:32:08;2.20;;;1.13;;
25327;SDS011;13279;51.300;12.394;2023-03-23T01:34:36;5.00;;;1.00;;
25327;SDS011;13279;51.300;12.394;2023-03-23T01:37:04;2.00;;;1.23;;
25327;SDS011;13279;51.300;12.394;2023-03-23T01:39:31;5.27;;;1.17;;
25327;SDS011;13279;51.300;12.394;2023-03-23T01:42:00;1.47;;;1.10;;
25327;SDS011;13279;51.300;12.394;2023-03-23T01:47:44;2.30;;;1.20;;
25327;SDS011;13279;51.300;12.394;2023-03-23T01:50:11;3.87;;;1.37;;
25327;SDS011;13279;51.300;12.394;2023-03-23T01:52:39;1.77;;;1.03;;
25327;SDS011;13279;51.300;12.394;2023-03-23T01:55:07;2.67;;;1.33;;
25327;SDS011;13279;51.300;12.394;2023-03-23T01:57:37;1.70;;;1.23;;
25327;SDS011;13279;51.300;12.394;2023-03-23T02:00:06;2.37;;;0.80;;
25327;SDS011;13279;51.300;12.394;2023-03-23T02:02:40;1.10;;;1.10;;
25327;SDS011;13279;51.300;12.394;2023-03-23T02:05:10;2.30;;;1.23;;
25327;SDS011;13279;51.300;12.394;2023-03-23T02:07:42;3.70;;;1.17;;
25327;SDS011;13279;51.300;12.394;2023-03-23T02:10:11;1.20;;;1.10;;
25327;SDS011;13279;51.300;12.394;2023-03-23T02:12:40;3.40;;;1.13;;
25327;SDS011;13279;51.300;12.394;2023-03-23T02:15:09;2.90;;;0.80;;
25327;SDS011;13279;51.300;12.394;2023-03-23T02:17:41;1.83;;;0.93;;
25327;SDS011;13279;51.300;12.394;2023-03-23T02:20:23;1.43;;;1.27;;
25327;SDS011;13279;51.300;12.394;2023-03-23T02:23:23;1.00;;;0.90;;
25327;SDS011;13279;51.300;12.394;2023-03-23T02:26:12;2.93;;;0.80;;
25327;SDS011;13279;51.300;12.394;2023-03-23T02:29:01;1.77;;;1.20;;
25327;SDS011;13279;51.300;12.394;2023-03-23T02:31:54;4.30;;;1.10;;
25327;SDS011;13279;51.300;12.394;2023-03-23T02:34:34;4.40;;;1.23;;
25327;SDS011;13279;51.300;12.394;2023-03-23T02:37:09;0.97;;;0.97;;
25327;SDS011;13279;51.300;12.394;2023-03-23T02:39:42;1.17;;;1.00;;
25327;SDS011;13279;51.300;12.394;2023-03-23T02:42:13;2.50;;;1.20;;
25327;SDS011;13279;51.300;12.394;2023-03-23T02:44:44;1.87;;;1.10;;
25327;SDS011;13279;51.300;12.394;2023-03-23T02:47:14;2.30;;;1.23;;
25327;SDS011;13279;51.300;12.394;2023-03-23T02:49:48;1.37;;;1.03;;
25327;SDS011;13279;51.300;12.394;2023-03-23T02:52:19;2.27;;;1.40;;
25327;SDS011;13279;51.300;12.394;2023-03-23T02:54:51;5.10;;;1.17;;
25327;SDS011;13279;51.300;12.394;2023-03-23T02:57:21;3.67;;;1.90;;
25327;SDS011;13279;51.300;12.394;2023-03-23T02:59:51;1.40;;;1.17;;
25327;SDS011;13279;51.300;12.394;2023-03-23T03:02:21;1.30;;;1.20;;
25327;SDS011;13279;51.300;12.394;2023-03-23T03:04:53;3.53;;;1.20;;
25327;SDS011;13279;51.300;12.394;2023-03-23T03:07:30;3.83;;;1.10;;
25327;SDS011;13279;51.300;12.394;2023-03-23T03:10:04;1.93;;;0.93;;
25327;SDS011;13279;51.300;12.394;2023-03-23T03:12:41;2.40;;;1.30;;
25327;SDS011;13279;51.300;12.394;2023-03-23T03:15:17;1.20;;;1.20;;
25327;SDS011;13279;51.300;12.394;2023-03-23T03:17:52;2.30;;;1.40;;
25327;SDS011;13279;51.300;12.394;2023-03-23T03:20:26;1.60;;;1.20;;
25327;SDS011;13279;51.300;12.394;2023-03-23T03:22:55;2.27;;;1.37;;
25327;SDS011;13279;51.300;12.394;2023-03-23T03:25:25;1.90;;;1.23;;
25327;SDS011;13279;51.300;12.394;2023-03-23T03:27:55;5.20;;;1.43;;
25327;SDS011;13279;51.300;12.394;2023-03-23T03:30:36;0.87;;;0.87;;
25327;SDS011;13279;51.300;12.394;2023-03-23T03:33:06;1.40;;;1.30;;
25327;SDS011;13279;51.300;12.394;2023-03-23T03:35:35;2.67;;;1.30;;
25327;SDS011;13279;51.300;12.394;2023-03-23T03:38:05;1.50;;;1.17;;
25327;SDS011;13279;51.300;12.394;2023-03-23T03:40:34;2.60;;;1.03;;
25327;SDS011;13279;51.300;12.394;2023-03-23T03:43:02;1.03;;;1.03;;
25327;SDS011;13279;51.300;12.394;2023-03-23T03:45:29;1.90;;;1.07;;
25327;SDS011;13279;51.300;12.394;2023-03-23T03:47:57;2.93;;;1.37;;
25327;SDS011;13279;51.300;12.394;2023-03-23T03:50:25;4.20;;;1.37;;
25327;SDS011;13279;51.300;12.394;2023-03-23T03:52:54;2.87;;;1.30;;
25327;SDS011;13279;51.300;12.394;2023-03-23T03:55:22;3.67;;;1.27;;
25327;SDS011;13279;51.300;12.394;2023-03-23T03:57:50;2.40;;;1.37;;
25327;SDS011;13279;51.300;12.394;2023-03-23T04:00:37;1.80;;;1.20;;
25327;SDS011;13279;51.300;12.394;2023-03-23T04:03:07;3.23;;;1.03;;
25327;SDS011;13279;51.300;12.394;2023-03-23T04:05:54;3.87;;;1.20;;
25327;SDS011;13279;51.300;12.394;2023-03-23T04:08:24;4.00;;;1.00;;
25327;SDS011;13279;51.300;12.394;2023-03-23T04:10:52;1.50;;;1.40;;
25327;SDS011;13279;51.300;12.394;2023-03-23T04:13:21;3.20;;;1.10;;
25327;SDS011;13279;51.300;12.394;2023-03-23T04:16:06;3.20;;;1.30;;
25327;SDS011;13279;51.300;12.394;2023-03-23T04:18:34;2.20;;;1.40;;
25327;SDS011;13279;51.300;12.394;2023-03-23T04:21:03;2.17;;;0.87;;
25327;SDS011;13279;51.300;12.394;2023-03-23T04:23:34;1.53;;;1.33;;
25327;SDS011;13279;51.300;12.394;2023-03-23T04:26:03;1.47;;;1.10;;
25327;SDS011;13279;51.300;12.394;2023-03-23T04:28:36;2.20;;;1.67;;
25327;SDS011;13279;51.300;12.394;2023-03-23T04:31:24;1.20;;;1.03;;
25327;SDS011;13279;51.300;12.394;2023-03-23T04:33:59;3.50;;;1.20;;
25327;SDS011;13279;51.300;12.394;2023-03-23T04:36:34;4.17;;;1.00;;
25327;SDS011;13279;51.300;12.394;2023-03-23T04:39:10;6.37;;;1.40;;
25327;SDS011;13279;51.300;12.394;2023-03-23T04:41:39;2.77;;;0.90;;
25327;SDS011;13279;51.300;12.394;2023-03-23T04:44:45;1.23;;;1.13;;
25327;SDS011;13279;51.300;12.394;2023-03-23T04:47:23;3.00;;;1.30;;
25327;SDS011;13279;51.300;12.394;2023-03-23T04:49:58;2.27;;;1.33;;
25327;SDS011;13279;51.300;12.394;2023-03-23T04:52:34;1.20;;;0.90;;
25327;SDS011;13279;51.300;12.394;2023-03-23T04:55:06;6.43;;;2.00;;
25327;SDS011;13279;51.300;12.394;2023-03-23T04:57:37;2.37;;;1.60;;
25327;SDS011;13279;51.300;12.394;2023-03-23T05:00:23;1.93;;;1.73;;
25327;SDS011;13279;51.300;12.394;2023-03-23T05:02:53;3.27;;;1.97;;
25327;SDS011;13279;51.300;12.394;2023-03-23T05:05:24;4.60;;;1.40;;
25327;SDS011;13279;51.300;12.394;2023-03-23T05:07:55;1.60;;;1.50;;
25327;SDS011;13279;51.300;12.394;2023-03-23T05:10:28;1.20;;;1.20;;
25327;SDS011;13279;51.300;12.394;2023-03-23T05:13:02;1.87;;;1.57;;
25327;SDS011;13279;51.300;12.394;2023-03-23T05:15:30;3.50;;;1.30;;
25327;SDS011;13279;51.300;12.394;2023-03-23T05:17:58;1.90;;;1.17;;
25327;SDS011;13279;51.300;12.394;2023-03-23T05:20:29;1.77;;;1.30;;
25327;SDS011;13279;51.300;12.394;2023-03-23T05:23:02;1.40;;;1.30;;
25327;SDS011;13279;51.300;12.394;2023-03-23T05:25:35;1.33;;;1.23;;
25327;SDS011;13279;51.300;12.394;2023-03-23T05:28:12;1.57;;;1.30;;
25327;SDS011;13279;51.300;12.394;2023-03-23T05:30:59;3.43;;;1.47;;
25327;SDS011;13279;51.300;12.394;2023-03-23T05:33:30;3.00;;;1.47;;
25327;SDS011;13279;51.300;12.394;2023-03-23T05:36:01;1.03;;;1.03;;
25327;SDS011;13279;51.300;12.394;2023-03-23T05:38:40;4.07;;;1.77;;
25327;SDS011;13279;51.300;12.394;2023-03-23T05:41:12;2.60;;;1.47;;
25327;SDS011;13279;51.300;12.394;2023-03-23T05:43:41;1.60;;;1.50;;
25327;SDS011;13279;51.300;12.394;2023-03-23T05:46:32;3.03;;;2.20;;
25327;SDS011;13279;51.300;12.394;2023-03-23T05:49:01;5.93;;;2.13;;
25327;SDS011;13279;51.300;12.394;2023-03-23T05:51:35;6.10;;;2.90;;
25327;SDS011;13279;51.300;12.394;2023-03-23T05:54:03;7.33;;;2.90;;
25327;SDS011;13279;51.300;12.394;2023-03-23T05:56:32;8.27;;;3.30;;
25327;SDS011;13279;51.300;12.394;2023-03-23T05:59:14;4.33;;;2.57;;
25327;SDS011;13279;51.300;12.394;2023-03-23T06:01:44;6.67;;;2.63;;
25327;SDS011;13279;51.300;12.394;2023-03-23T06:04:12;3.67;;;2.07;;
25327;SDS011;13279;51.300;12.394;2023-03-23T06:06:55;2.97;;;1.80;;
25327;SDS011;13279;51.300;12.394;2023-03-23T06:09:23;3.57;;;1.57;;
25327;SDS011;13279;51.300;12.394;2023-03-23T06:12:14;5.43;;;1.50;;
25327;SDS011;13279;51.300;12.394;2023-03-23T06:15:09;2.10;;;1.70;;
25327;SDS011;13279;51.300;12.394;2023-03-23T06:18:16;1.60;;;1.50;;
25327;SDS011;13279;51.300;12.394;2023-03-23T06:21:02;2.20;;;1.43;;
25327;SDS011;13279;51.300;12.394;2023-03-23T06:23:48;3.87;;;1.90;;
25327;SDS011;13279;51.300;12.394;2023-03-23T06:26:18;1.73;;;1.40;;
25327;SDS011;13279;51.300;12.394;2023-03-23T06:28:53;1.43;;;1.33;;
25327;SDS011;13279;51.300;12.394;2023-03-23T06:31:21;1.60;;;1.50;;
25327;SDS011;13279;51.300;12.394;2023-03-23T06:33:49;3.43;;;1.80;;
25327;SDS011;13279;51.300;12.394;2023-03-23T06:36:40;8.03;;;1.53;;
25327;SDS011;13279;51.300;12.394;2023-03-23T06:39:19;1.73;;;1.33;;
25327;SDS011;13279;51.300;12.394;2023-03-23T06:42:08;1.40;;;1.30;;
25327;SDS011;13279;51.300;12.394;2023-03-23T06:44:41;4.53;;;1.50;;
25327;SDS011;13279;51.300;12.394;2023-03-23T06:47:11;1.63;;;1.43;;
25327;SDS011;13279;51.300;12.394;2023-03-23T06:49:44;5.93;;;1.43;;
25327;SDS011;13279;51.300;12.394;2023-03-23T06:52:24;3.97;;;1.70;;
25327;SDS011;13279;51.300;12.394;2023-03-23T06:54:53;2.17;;;1.67;;
25327;SDS011;13279;51.300;12.394;2023-03-23T06:57:21;1.77;;;1.40;;
25327;SDS011;13279;51.300;12.394;2023-03-23T06:59:52;5.47;;;1.50;;
25327;SDS011;13279;51.300;12.394;2023-03-23T07:02:22;2.10;;;1.40;;
25327;SDS011;13279;51.300;12.394;2023-03-23T07:04:52;4.27;;;1.47;;
25327;SDS011;13279;51.300;12.394;2023-03-23T07:07:22;1.67;;;1.23;;
25327;SDS011;13279;51.300;12.394;2023-03-23T07:10:03;3.50;;;1.53;;
25327;SDS011;13279;51.300;12.394;2023-03-23T07:12:32;3.53;;;1.70;;
25327;SDS011;13279;51.300;12.394;2023-03-23T07:15:02;4.67;;;1.87;;
25327;SDS011;13279;51.300;12.394;2023-03-23T07:17:30;2.30;;;1.63;;
25327;SDS011;13279;51.300;12.394;2023-03-23T07:20:06;2.40;;;1.67;;
25327;SDS011;13279;51.300;12.394;2023-03-23T07:22:56;4.47;;;1.40;;
25327;SDS011;13279;51.300;12.394;2023-03-23T07:25:39;4.07;;;1.30;;
25327;SDS011;13279;51.300;12.394;2023-03-23T07:28:10;1.23;;;1.13;;
25327;SDS011;13279;51.300;12.394;2023-03-23T07:30:39;1.83;;;1.37;;
25327;SDS011;13279;51.300;12.394;2023-03-23T07:33:08;4.50;;;1.50;;
25327;SDS011;13279;51.300;12.394;2023-03-23T07:35:36;1.37;;;1.27;;
25327;SDS011;13279;51.300;12.394;2023-03-23T07:38:10;1.60;;;1.40;;
25327;SDS011;13279;51.300;12.394;2023-03-23T07:40:40;1.70;;;1.47;;
25327;SDS011;13279;51.300;12.394;2023-03-23T07:43:13;1.93;;;1.63;;
25327;SDS011;13279;51.300;12.394;2023-03-23T07:46:19;4.57;;;1.13;;
25327;SDS011;13279;51.300;12.394;2023-03-23T07:48:57;1.60;;;1.20;;
25327;SDS011;13279;51.300;12.394;2023-03-23T07:51:34;2.27;;;1.60;;
25327;SDS011;13279;51.300;12.394;2023-03-23T07:54:05;1.53;;;1.43;;
25327;SDS011;13279;51.300;12.394;2023-03-23T07:56:53;3.43;;;1.20;;
25327;SDS011;13279;51.300;12.394;2023-03-23T07:59:25;2.17;;;1.50;;
25327;SDS011;13279;51.300;12.394;2023-03-23T08:01:55;2.77;;;1.80;;
25327;SDS011;13279;51.300;12.394;2023-03-23T08:04:41;3.00;;;1.60;;
25327;SDS011;13279;51.300;12.394;2023-03-23T08:07:29;5.57;;;2.03;;
25327;SDS011;13279;51.300;12.394;2023-03-23T08:09:57;4.77;;;1.30;;
25327;SDS011;13279;51.300;12.394;2023-03-23T08:12:30;4.40;;;1.20;;
25327;SDS011;13279;51.300;12.394;2023-03-23T08:15:36;1.53;;;1.43;;
25327;SDS011;13279;51.300;12.394;2023-03-23T08:18:19;1.67;;;1.43;;
25327;SDS011;13279;51.300;12.394;2023-03-23T08:21:16;2.43;;;2.23;;
25327;SDS011;13279;51.300;12.394;2023-03-23T08:24:16;3.50;;;1.87;;
25327;SDS011;13279;51.300;12.394;2023-03-23T08:27:01;1.50;;;1.40;;
25327;SDS011;13279;51.300;12.394;2023-03-23T08:29:46;3.40;;;2.00;;
25327;SDS011;13279;51.300;12.394;2023-03-23T08:32:31;1.80;;;1.70;;
25327;SDS011;13279;51.300;12.394;2023-03-23T08:35:19;2.93;;;1.77;;
25327;SDS011;13279;51.300;12.394;2023-03-23T08:38:11;1.30;;;1.20;;
25327;SDS011;13279;51.300;12.394;2023-03-23T08:41:11;3.77;;;1.50;;
25327;SDS011;13279;51.300;12.394;2023-03-23T08:43:54;2.30;;;1.47;;
25327;SDS011;13279;51.300;12.394;2023-03-23T08:46:52;2.17;;;1.97;;
25327;SDS011;13279;51.300;12.394;2023-03-23T08:49:42;1.90;;;1.57;;
25327;SDS011;13279;51.300;12.394;2023-03-23T08:52:34;4.23;;;1.70;;
25327;SDS011;13279;51.300;12.394;2023-03-23T08:55:15;4.80;;;1.57;;
25327;SDS011;13279;51.300;12.394;2023-03-23T08:58:09;3.47;;;1.80;;
25327;SDS011;13279;51.300;12.394;2023-03-23T09:00:54;5.90;;;1.63;;
25327;SDS011;13279;51.300;12.394;2023-03-23T09:03:45;1.73;;;1.43;;
25327;SDS011;13279;51.300;12.394;2023-03-23T09:06:35;2.67;;;1.43;;
25327;SDS011;13279;51.300;12.394;2023-03-23T09:09:04;1.77;;;1.50;;
25327;SDS011;13279;51.300;12.394;2023-03-23T09:11:32;1.70;;;1.27;;
25327;SDS011;13279;51.300;12.394;2023-03-23T09:14:00;2.20;;;1.40;;
25327;SDS011;13279;51.300;12.394;2023-03-23T09:16:28;3.23;;;1.90;;
25327;SDS011;13279;51.300;12.394;2023-03-23T09:18:56;1.40;;;1.30;;
25327;SDS011;13279;51.300;12.394;2023-03-23T09:21:24;1.53;;;1.43;;
25327;SDS011;13279;51.300;12.394;2023-03-23T09:23:52;1.30;;;1.20;;
25327;SDS011;13279;51.300;12.394;2023-03-23T09:26:25;2.03;;;1.50;;
25327;SDS011;13279;51.300;12.394;2023-03-23T09:28:53;1.40;;;1.33;;
25327;SDS011;13279;51.300;12.394;2023-03-23T09:31:22;4.87;;;1.60;;
25327;SDS011;13279;51.300;12.394;2023-03-23T09:33:52;1.63;;;1.53;;
25327;SDS011;13279;51.300;12.394;2023-03-23T09:36:21;5.30;;;1.60;;
25327;SDS011;13279;51.300;12.394;2023-03-23T09:38:51;4.83;;;1.93;;
25327;SDS011;13279;51.300;12.394;2023-03-23T09:41:24;1.40;;;1.30;;
25327;SDS011;13279;51.300;12.394;2023-03-23T09:44:17;3.17;;;1.20;;
25327;SDS011;13279;51.300;12.394;2023-03-23T09:46:53;1.30;;;1.20;;
25327;SDS011;13279;51.300;12.394;2023-03-23T09:49:28;5.87;;;1.20;;
25327;SDS011;13279;51.300;12.394;2023-03-23T09:52:01;1.43;;;1.33;;
25327;SDS011;13279;51.300;12.394;2023-03-23T09:54:35;1.40;;;1.17;;
25327;SDS011;13279;51.300;12.394;2023-03-23T09:57:18;1.40;;;1.30;;
25327;SDS011;13279;51.300;12.394;2023-03-23T09:59:54;1.97;;;1.40;;
25327;SDS011;13279;51.300;12.394;2023-03-23T10:02:28;1.70;;;1.00;;
25327;SDS011;13279;51.300;12.394;2023-03-23T10:05:06;5.10;;;1.50;;
25327;SDS011;13279;51.300;12.394;2023-03-23T10:07:45;2.30;;;1.50;;
25327;SDS011;13279;51.300;12.394;2023-03-23T10:10:13;5.30;;;1.43;;
25327;SDS011;13279;51.300;12.394;2023-03-23T10:12:44;5.97;;;1.30;;
25327;SDS011;13279;51.300;12.394;2023-03-23T10:15:17;1.53;;;1.37;;
25327;SDS011;13279;51.300;12.394;2023-03-23T10:17:49;3.30;;;1.30;;
25327;SDS011;13279;51.300;12.394;2023-03-23T10:20:22;1.57;;;1.47;;
25327;SDS011;13279;51.300;12.394;2023-03-23T10:23:08;7.33;;;1.37;;
25327;SDS011;13279;51.300;12.394;2023-03-23T10:25:41;4.33;;;1.33;;
25327;SDS011;13279;51.300;12.394;2023-03-23T10:28:13;4.47;;;1.47;;
25327;SDS011;13279;51.300;12.394;2023-03-23T10:30:45;2.57;;;1.20;;
25327;SDS011;13279;51.300;12.394;2023-03-23T10:33:18;8.07;;;1.50;;
25327;SDS011;13279;51.300;12.394;2023-03-23T10:35:50;3.50;;;1.07;;
25327;SDS011;13279;51.300;12.394;2023-03-23T10:38:26;3.83;;;1.57;;
25327;SDS011;13279;51.300;12.394;2023-03-23T10:41:00;1.90;;;1.20;;
25327;SDS011;13279;51.300;12.394;2023-03-23T10:43:33;4.23;;;1.10;;
25327;SDS011;13279;51.300;12.394;2023-03-23T10:46:01;4.20;;;1.47;;
25327;SDS011;13279;51.300;12.394;2023-03-23T10:48:33;2.97;;;1.20;;
25327;SDS011;13279;51.300;12.394;2023-03-23T10:51:05;3.23;;;1.00;;
25327;SDS011;13279;51.300;12.394;2023-03-23T10:53:37;2.17;;;0.97;;
25327;SDS011;13279;51.300;12.394;2023-03-23T10:56:19;1.70;;;1.27;;
25327;SDS011;13279;51.300;12.394;2023-03-23T10:58:50;2.07;;;1.50;;
25327;SDS011;13279;51.300;12.394;2023-03-23T11:01:18;1.10;;;1.00;;
25327;SDS011;13279;51.300;12.394;2023-03-23T11:03:48;1.23;;;1.10;;
25327;SDS011;13279;51.300;12.394;2023-03-23T11:06:20;1.53;;;1.20;;
25327;SDS011;13279;51.300;12.394;2023-03-23T11:08:51;1.27;;;1.10;;
25327;SDS011;13279;51.300;12.394;2023-03-23T11:11:25;1.37;;;1.17;;
25327;SDS011;13279;51.300;12.394;2023-03-23T11:13:58;2.60;;;0.90;;
25327;SDS011;13279;51.300;12.394;2023-03-23T11:16:28;1.70;;;0.90;;
25327;SDS011;13279;51.300;12.394;2023-03-23T11:18:58;1.67;;;1.00;;
25327;SDS011;13279;51.300;12.394;2023-03-23T11:21:26;2.90;;;0.87;;
25327;SDS011;13279;51.300;12.394;2023-03-23T11:23:55;1.40;;;1.30;;
25327;SDS011;13279;51.300;12.394;2023-03-23T11:26:26;1.30;;;0.97;;
25327;SDS011;13279;51.300;12.394;2023-03-23T11:28:56;2.80;;;1.00;;
25327;SDS011;13279;51.300;12.394;2023-03-23T11:31:32;0.77;;;0.70;;
25327;SDS011;13279;51.300;12.394;2023-03-23T11:34:02;1.23;;;1.13;;
25327;SDS011;13279;51.300;12.394;2023-03-23T11:36:38;3.97;;;1.10;;
25327;SDS011;13279;51.300;12.394;2023-03-23T11:39:22;2.63;;;1.20;;
25327;SDS011;13279;51.300;12.394;2023-03-23T11:41:52;1.47;;;1.00;;
25327;SDS011;13279;51.300;12.394;2023-03-23T11:44:21;2.53;;;1.00;;
25327;SDS011;13279;51.300;12.394;2023-03-23T11:46:57;0.83;;;0.77;;
25327;SDS011;13279;51.300;12.394;2023-03-23T11:49:31;1.40;;;0.73;;
25327;SDS011;13279;51.300;12.394;2023-03-23T11:52:09;1.43;;;1.03;;
25327;SDS011;13279;51.300;12.394;2023-03-23T11:54:43;1.10;;;1.00;;
25327;SDS011;13279;51.300;12.394;2023-03-23T11:57:17;2.20;;;0.90;;
25327;SDS011;13279;51.300;12.394;2023-03-23T11:59:46;1.63;;;1.13;;
25327;SDS011;13279;51.300;12.394;2023-03-23T12:02:21;0.70;;;0.70;;
25327;SDS011;13279;51.300;12.394;2023-03-23T12:05:04;1.23;;;0.70;;
25327;SDS011;13279;51.300;12.394;2023-03-23T12:07:51;1.67;;;0.73;;
25327;SDS011;13279;51.300;12.394;2023-03-23T12:10:30;1.03;;;0.90;;
25327;SDS011;13279;51.300;12.394;2023-03-23T12:13:08;1.63;;;0.77;;
25327;SDS011;13279;51.300;12.394;2023-03-23T12:15:49;0.90;;;0.90;;
25327;SDS011;13279;51.300;12.394;2023-03-23T12:18:25;2.40;;;1.00;;
25327;SDS011;13279;51.300;12.394;2023-03-23T12:21:06;1.83;;;0.70;;
25327;SDS011;13279;51.300;12.394;2023-03-23T12:23:44;0.70;;;0.70;;
25327;SDS011;13279;51.300;12.394;2023-03-23T12:26:18;0.77;;;0.60;;
25327;SDS011;13279;51.300;12.394;2023-03-23T12:28:54;0.87;;;0.70;;
25327;SDS011;13279;51.300;12.394;2023-03-23T12:31:56;2.30;;;0.77;;
25327;SDS011;13279;51.300;12.394;2023-03-23T12:34:37;4.60;;;0.97;;
25327;SDS011;13279;51.300;12.394;2023-03-23T12:37:13;0.53;;;0.53;;
25327;SDS011;13279;51.300;12.394;2023-03-23T12:42:52;0.80;;;0.80;;
25327;SDS011;13279;51.300;12.394;2023-03-23T12:45:37;1.73;;;0.83;;
25327;SDS011;13279;51.300;12.394;2023-03-23T12:48:26;0.70;;;0.70;;
25327;SDS011;13279;51.300;12.394;2023-03-23T12:51:03;1.83;;;0.70;;
25327;SDS011;13279;51.300;12.394;2023-03-23T12:53:38;1.37;;;0.97;;
25327;SDS011;13279;51.300;12.394;2023-03-23T12:56:15;0.60;;;0.60;;
25327;SDS011;13279;51.300;12.394;2023-03-23T12:58:49;2.63;;;0.60;;
25327;SDS011;13279;51.300;12.394;2023-03-23T13:01:22;2.10;;;0.80;;
25327;SDS011;13279;51.300;12.394;2023-03-23T13:03:55;1.00;;;0.63;;
25327;SDS011;13279;51.300;12.394;2023-03-23T13:06:27;1.77;;;0.73;;
25327;SDS011;13279;51.300;12.394;2023-03-23T13:08:58;1.10;;;0.80;;
25327;SDS011;13279;51.300;12.394;2023-03-23T13:11:31;0.73;;;0.73;;
25327;SDS011;13279;51.300;12.394;2023-03-23T13:14:03;4.73;;;0.97;;
25327;SDS011;13279;51.300;12.394;2023-03-23T13:16:41;2.90;;;1.13;;
25327;SDS011;13279;51.300;12.394;2023-03-23T13:19:16;0.53;;;0.50;;
25327;SDS011;13279;51.300;12.394;2023-03-23T13:21:50;3.77;;;0.63;;
25327;SDS011;13279;51.300;12.394;2023-03-23T13:24:26;0.50;;;0.50;;
25327;SDS011;13279;51.300;12.394;2023-03-23T13:26:58;0.50;;;0.50;;
25327;SDS011;13279;51.300;12.394;2023-03-23T13:29:26;0.60;;;0.60;;
25327;SDS011;13279;51.300;12.394;2023-03-23T13:32:04;0.60;;;0.60;;
25327;SDS011;13279;51.300;12.394;2023-03-23T13:34:35;1.60;;;0.50;;
25327;SDS011;13279;51.300;12.394;2023-03-23T13:37:04;0.50;;;0.50;;
25327;SDS011;13279;51.300;12.394;2023-03-23T13:39:38;0.87;;;0.70;;
25327;SDS011;13279;51.300;12.394;2023-03-23T13:42:19;3.00;;;0.93;;
25327;SDS011;13279;51.300;12.394;2023-03-23T13:45:05;0.70;;;0.70;;
25327;SDS011;13279;51.300;12.394;2023-03-23T13:47:36;0.97;;;0.90;;
25327;SDS011;13279;51.300;12.394;2023-03-23T13:50:11;2.63;;;0.87;;
25327;SDS011;13279;51.300;12.394;2023-03-23T13:52:52;0.80;;;0.57;;
25327;SDS011;13279;51.300;12.394;2023-03-23T13:55:29;1.03;;;0.67;;
25327;SDS011;13279;51.300;12.394;2023-03-23T13:58:09;0.70;;;0.60;;
25327;SDS011;13279;51.300;12.394;2023-03-23T14:00:46;0.87;;;0.80;;
25327;SDS011;13279;51.300;12.394;2023-03-23T14:03:18;0.83;;;0.70;;
25327;SDS011;13279;51.300;12.394;2023-03-23T14:06:00;1.03;;;0.93;;
25327;SDS011;13279;51.300;12.394;2023-03-23T14:08:47;0.73;;;0.73;;
25327;SDS011;13279;51.300;12.394;2023-03-23T14:11:19;1.20;;;1.10;;
25327;SDS011;13279;51.300;12.394;2023-03-23T14:14:02;2.30;;;1.33;;
25327;SDS011;13279;51.300;12.394;2023-03-23T14:16:32;0.97;;;0.83;;
25327;SDS011;13279;51.300;12.394;2023-03-23T14:19:04;0.63;;;0.63;;
25327;SDS011;13279;51.300;12.394;2023-03-23T14:21:48;1.07;;;0.60;;
25327;SDS011;13279;51.300;12.394;2023-03-23T14:24:17;4.07;;;1.20;;
25327;SDS011;13279;51.300;12.394;2023-03-23T14:26:49;1.30;;;0.80;;
25327;SDS011;13279;51.300;12.394;2023-03-23T14:29:19;0.90;;;0.80;;
25327;SDS011;13279;51.300;12.394;2023-03-23T14:31:50;4.33;;;0.70;;
25327;SDS011;13279;51.300;12.394;2023-03-23T14:34:22;0.60;;;0.60;;
25327;SDS011;13279;51.300;12.394;2023-03-23T14:36:54;3.23;;;0.90;;
25327;SDS011;13279;51.300;12.394;2023-03-23T14:39:23;0.70;;;0.70;;
25327;SDS011;13279;51.300;12.394;2023-03-23T14:41:53;0.70;;;0.70;;
25327;SDS011;13279;51.300;12.394;2023-03-23T14:44:24;2.67;;;0.80;;
25327;SDS011;13279;51.300;12.394;2023-03-23T14:46:54;0.77;;;0.70;;
25327;SDS011;13279;51.300;12.394;2023-03-23T14:49:25;2.97;;;0.90;;
25327;SDS011;13279;51.300;12.394;2023-03-23T14:52:01;0.80;;;0.80;;
25327;SDS011;13279;51.300;12.394;2023-03-23T14:54:31;1.07;;;0.67;;
25327;SDS011;13279;51.300;12.394;2023-03-23T14:57:02;0.70;;;0.70;;
25327;SDS011;13279;51.300;12.394;2023-03-23T14:59:39;1.20;;;1.10;;
25327;SDS011;13279;51.300;12.394;2023-03-23T15:02:09;1.10;;;0.93;;
25327;SDS011;13279;51.300;12.394;2023-03-23T15:04:40;1.93;;;1.07;;
25327;SDS011;13279;51.300;12.394;2023-03-23T15:07:10;1.17;;;1.00;;
25327;SDS011;13279;51.300;12.394;2023-03-23T15:09:42;0.97;;;0.90;;
25327;SDS011;13279;51.300;12.394;2023-03-23T15:12:17;1.53;;;1.00;;
25327;SDS011;13279;51.300;12.394;2023-03-23T15:14:48;2.07;;;1.20;;
25327;SDS011;13279;51.300;12.394;2023-03-23T15:17:19;2.20;;;1.03;;
25327;SDS011;13279;51.300;12.394;2023-03-23T15:19:48;1.67;;;0.90;;
25327;SDS011;13279;51.300;12.394;2023-03-23T15:22:20;3.33;;;0.70;;
25327;SDS011;13279;51.300;12.394;2023-03-23T15:24:51;1.13;;;0.90;;